Canadian's Hourly Summary for Thursday, March 16, 2017
Hour Temp
(f)
RH
(%)
Solar Rad.
(MJ/m2)
Rainfall
(in)
Wind
(mph)
3/16/2017 12:00 AM 49 57 0 0 2.13
3/16/2017 1:00 AM 49 58 0 0 2.86
3/16/2017 2:00 AM 48 64 0 0 2.59
3/16/2017 3:00 AM 49 62 0 0 1.82
3/16/2017 4:00 AM 46 64 0 0 0.48
3/16/2017 5:00 AM 44 72 0 0 0.67
3/16/2017 6:00 AM 40 80 0 0 0.51
3/16/2017 7:00 AM 38 82 0 0 0.62
3/16/2017 8:00 AM 37 88 0.01 0 0.15
3/16/2017 9:00 AM 40 68 0.28 0 0.35
3/16/2017 10:00 AM 55 58 0.9 0 3.09
3/16/2017 11:00 AM 67 39 1.59 0 6.12
3/16/2017 12:00 PM 73 34 2.31 0 8.94
3/16/2017 1:00 PM 77 28 2.38 0 10.1
3/16/2017 2:00 PM 80 20 2.42 0 10.64
3/16/2017 3:00 PM 84 17 2.68 0 9.72
3/16/2017 4:00 PM 85 16 2.49 0 11.27
3/16/2017 5:00 PM 87 15 2.15 0 10.1
3/16/2017 6:00 PM 85 15 1.18 0 9.19
3/16/2017 7:00 PM 83 18 0.79 0 12.18
3/16/2017 8:00 PM 78 23 0.13 0 9.02
3/16/2017 9:00 PM 73 32 0 0 8.36
3/16/2017 10:00 PM 68 42 0 0 6.88
3/16/2017 11:00 PM 65 46 0 0 2.29
Data Summary 62 45 19.31 0.00 5.42